Time;durP1;ratioP1;P1;durP2;ratioP2;P2;SDS_P1;SDS_P2;PMS_P1;PMS_P2;Temp;Humidity;BMP_temperature;BMP_pressure;BME280_temperature;BME280_humidity;BME280_pressure;Samples;Min_cycle;Max_cycle;Signal;HPM_P1;HPM_P2
2022/12/13 00:00:32;;;;;;;5.43;4.95;;;;;;;;;;5079518;28;20215;-68
2022/12/13 00:02:59;;;;;;;5.00;4.60;;;;;;;;;;5080034;28;20216;-68
2022/12/13 00:05:27;;;;;;;4.93;4.43;;;;;;;;;;5079325;28;20200;-68
2022/12/13 00:07:55;;;;;;;4.57;4.18;;;;;;;;;;5079258;28;20303;-68
2022/12/13 00:10:23;;;;;;;5.07;4.68;;;;;;;;;;5079519;28;20491;-68
2022/12/13 00:12:50;;;;;;;4.85;4.45;;;;;;;;;;5079630;28;20651;-68
2022/12/13 00:15:19;;;;;;;4.50;4.10;;;;;;;;;;5079564;28;20217;-68
2022/12/13 00:17:47;;;;;;;4.68;4.28;;;;;;;;;;5079300;28;20224;-68
2022/12/13 00:20:15;;;;;;;4.75;4.35;;;;;;;;;;5079438;28;20215;-68
2022/12/13 00:22:42;;;;;;;4.78;4.38;;;;;;;;;;5079487;28;20204;-68
2022/12/13 00:25:10;;;;;;;4.72;4.32;;;;;;;;;;5079163;28;20205;-68
2022/12/13 00:27:37;;;;;;;4.45;4.07;;;;;;;;;;5079278;28;20218;-68
2022/12/13 00:30:06;;;;;;;4.85;4.45;;;;;;;;;;5078972;28;20232;-68
2022/12/13 00:32:36;;;;;;;4.50;4.10;;;;;;;;;;5079463;28;20215;-68
2022/12/13 00:35:05;;;;;;;4.55;4.15;;;;;;;;;;5079182;28;20499;-68
2022/12/13 00:37:32;;;;;;;4.07;3.78;;;;;;;;;;5079018;28;20262;-67
2022/12/13 00:40:00;;;;;;;4.50;4.10;;;;;;;;;;5078714;28;20201;-68
2022/12/13 00:42:27;;;;;;;4.45;4.05;;;;;;;;;;5078916;28;20204;-68
2022/12/13 00:44:55;;;;;;;4.03;3.72;;;;;;;;;;5079002;28;20639;-68
2022/12/13 00:47:23;;;;;;;3.97;3.67;;;;;;;;;;5078297;28;20204;-68
2022/12/13 00:49:52;;;;;;;4.40;4.00;;;;;;;;;;5078487;28;20305;-68
2022/12/13 00:52:19;;;;;;;4.65;4.05;;;;;;;;;;5077616;28;20333;-68
2022/12/13 00:54:47;;;;;;;4.05;3.75;;;;;;;;;;5078655;28;20215;-68
2022/12/13 00:57:15;;;;;;;3.90;3.60;;;;;;;;;;5078772;28;20208;-67
2022/12/13 00:59:42;;;;;;;4.40;4.00;;;;;;;;;;5078760;28;20222;-68
2022/12/13 01:02:10;;;;;;;4.40;4.00;;;;;;;;;;5078447;28;20573;-68
2022/12/13 01:04:37;;;;;;;3.67;3.38;;;;;;;;;;5078448;28;20519;-68
2022/12/13 01:07:07;;;;;;;3.83;3.53;;;;;;;;;;5078177;28;20219;-68
2022/12/13 01:09:34;;;;;;;4.13;3.75;;;;;;;;;;5077743;28;20242;-67
2022/12/13 01:12:03;;;;;;;3.63;3.33;;;;;;;;;;5077839;28;20204;-67
2022/12/13 01:14:30;;;;;;;4.20;3.88;;;;;;;;;;5078722;28;20205;-68
2022/12/13 01:16:58;;;;;;;3.58;3.28;;;;;;;;;;5078243;28;20239;-68
2022/12/13 01:19:26;;;;;;;3.58;3.28;;;;;;;;;;5078245;28;20536;-68
2022/12/13 01:21:55;;;;;;;3.83;3.53;;;;;;;;;;5078331;28;20311;-67
2022/12/13 01:24:24;;;;;;;4.05;3.65;;;;;;;;;;5077977;28;20444;-68
2022/12/13 01:26:53;;;;;;;3.58;3.28;;;;;;;;;;5078191;28;20234;-68
2022/12/13 01:29:21;;;;;;;3.83;3.53;;;;;;;;;;5077905;28;20261;-68
2022/12/13 01:31:49;;;;;;;3.80;3.50;;;;;;;;;;5077403;28;20204;-68
2022/12/13 01:34:18;;;;;;;3.60;3.30;;;;;;;;;;5077814;28;20214;-68
2022/12/13 01:36:46;;;;;;;3.80;3.40;;;;;;;;;;5078059;28;20208;-69
2022/12/13 01:39:15;;;;;;;3.63;3.33;;;;;;;;;;5077926;28;20219;-68
2022/12/13 01:41:44;;;;;;;3.53;3.22;;;;;;;;;;5078095;28;20592;-68
2022/12/13 01:44:27;;;;;;;3.72;3.42;;;;;;;;;;5077884;28;20644;-68
2022/12/13 01:46:55;;;;;;;3.58;3.28;;;;;;;;;;5077737;28;20240;-68
2022/12/13 01:49:22;;;;;;;3.35;3.05;;;;;;;;;;5077805;28;20238;-67
2022/12/13 01:51:53;;;;;;;3.42;3.13;;;;;;;;;;5077393;28;20331;-68
2022/12/13 01:54:31;;;;;;;3.60;3.30;;;;;;;;;;5077495;28;20204;-67
2022/12/13 01:57:00;;;;;;;3.60;3.30;;;;;;;;;;5077534;28;20550;-69
2022/12/13 01:59:28;;;;;;;3.63;3.33;;;;;;;;;;5077835;28;20235;-69
2022/12/13 02:01:56;;;;;;;3.17;2.97;;;;;;;;;;5077555;28;20204;-69
2022/12/13 02:04:27;;;;;;;3.47;3.17;;;;;;;;;;5077597;28;20204;-68
2022/12/13 02:06:57;;;;;;;3.75;3.45;;;;;;;;;;5077414;28;20204;-66
2022/12/13 02:09:25;;;;;;;3.72;3.42;;;;;;;;;;5077808;28;20578;-69
2022/12/13 02:11:52;;;;;;;3.63;3.33;;;;;;;;;;5077203;28;20762;-67
2022/12/13 02:14:22;;;;;;;4.00;3.70;;;;;;;;;;5077375;28;20492;-67
2022/12/13 02:16:53;;;;;;;3.67;3.38;;;;;;;;;;5077078;28;20580;-66
2022/12/13 02:19:41;;;;;;;3.72;3.42;;;;;;;;;;5077537;28;20204;-67
2022/12/13 02:22:16;;;;;;;3.72;3.42;;;;;;;;;;5077053;28;20204;-69
2022/12/13 02:24:57;;;;;;;3.53;3.30;;;;;;;;;;5077403;28;20203;-69
2022/12/13 02:27:40;;;;;;;3.60;3.30;;;;;;;;;;5076903;28;20222;-67
2022/12/13 02:30:23;;;;;;;3.70;3.40;;;;;;;;;;5075830;28;20627;-67
2022/12/13 02:32:57;;;;;;;3.58;3.28;;;;;;;;;;5076849;28;20521;-68
2022/12/13 02:35:27;;;;;;;3.72;3.42;;;;;;;;;;5077321;28;20588;-67
2022/12/13 02:37:59;;;;;;;3.85;3.55;;;;;;;;;;5076533;28;20303;-67
2022/12/13 02:40:28;;;;;;;3.42;3.13;;;;;;;;;;5076825;28;20566;-67
2022/12/13 02:43:00;;;;;;;3.33;3.03;;;;;;;;;;5076725;28;20295;-67
2022/12/13 02:45:29;;;;;;;3.60;3.30;;;;;;;;;;5076456;28;20212;-69
2022/12/13 02:48:01;;;;;;;3.72;3.42;;;;;;;;;;5077053;28;20238;-67
2022/12/13 02:50:29;;;;;;;3.80;3.50;;;;;;;;;;5077021;28;20581;-67
2022/12/13 02:52:57;;;;;;;3.50;3.20;;;;;;;;;;5077054;28;20215;-67
2022/12/13 02:55:25;;;;;;;3.88;3.58;;;;;;;;;;5077137;28;20488;-67
2022/12/13 02:57:53;;;;;;;3.35;3.10;;;;;;;;;;5076529;28;20538;-67
2022/12/13 03:00:22;;;;;;;3.47;3.17;;;;;;;;;;5077001;28;20201;-67
2022/12/13 03:02:57;;;;;;;3.38;3.08;;;;;;;;;;5077083;28;20204;-67
2022/12/13 03:08:21;;;;;;;3.63;3.33;;;;;;;;;;5076511;28;20291;-68
2022/12/13 03:10:53;;;;;;;3.42;3.13;;;;;;;;;;5076923;28;20228;-68
2022/12/13 03:13:36;;;;;;;3.25;2.95;;;;;;;;;;5077014;28;20228;-67
2022/12/13 03:16:08;;;;;;;3.30;3.00;;;;;;;;;;5080533;28;20199;-67
2022/12/13 03:18:35;;;;;;;3.85;3.55;;;;;;;;;;5080114;28;20327;-67
2022/12/13 03:21:09;;;;;;;3.65;3.35;;;;;;;;;;5080233;28;20208;-67
2022/12/13 03:23:36;;;;;;;3.30;3.10;;;;;;;;;;5080487;28;20231;-67
2022/12/13 03:26:06;;;;;;;3.40;3.10;;;;;;;;;;5080020;28;20609;-67
2022/12/13 03:28:33;;;;;;;3.42;3.15;;;;;;;;;;5079944;28;20219;-67
2022/12/13 03:31:01;;;;;;;3.25;3.05;;;;;;;;;;5080185;28;20230;-67
2022/12/13 03:33:29;;;;;;;3.50;3.20;;;;;;;;;;5080190;28;20230;-68
2022/12/13 03:35:57;;;;;;;3.88;3.58;;;;;;;;;;5079982;28;20219;-67
2022/12/13 03:38:27;;;;;;;3.45;3.15;;;;;;;;;;5080319;28;20205;-67
2022/12/13 03:40:55;;;;;;;3.67;3.38;;;;;;;;;;5079832;28;20208;-67
2022/12/13 03:43:23;;;;;;;3.65;3.35;;;;;;;;;;5080034;28;20204;-67
2022/12/13 03:45:50;;;;;;;3.30;3.00;;;;;;;;;;5079732;28;20208;-69
2022/12/13 03:48:18;;;;;;;3.60;3.30;;;;;;;;;;5079446;28;20204;-69
2022/12/13 03:50:46;;;;;;;3.30;3.10;;;;;;;;;;5079314;28;20293;-67
2022/12/13 03:53:13;;;;;;;3.60;3.30;;;;;;;;;;5079211;28;20204;-69
2022/12/13 03:55:42;;;;;;;3.80;3.50;;;;;;;;;;5080098;28;20204;-69
2022/12/13 03:58:10;;;;;;;3.33;3.08;;;;;;;;;;5079197;28;20283;-68
2022/12/13 04:00:37;;;;;;;3.50;3.20;;;;;;;;;;5078758;28;20215;-66
2022/12/13 04:03:05;;;;;;;3.28;2.80;;;;;;;;;;5078894;28;20219;-68
2022/12/13 04:05:33;;;;;;;3.83;3.47;;;;;;;;;;5079357;28;20594;-68
2022/12/13 04:08:00;;;;;;;3.90;3.50;;;;;;;;;;5078972;28;20204;-68
2022/12/13 04:10:28;;;;;;;3.90;3.60;;;;;;;;;;5079125;28;20271;-68
2022/12/13 04:15:47;;;;;;;3.30;3.00;;;;;;;;;;5078521;28;20191;-68
2022/12/13 04:18:16;;;;;;;4.05;3.65;;;;;;;;;;5078868;28;20331;-68
2022/12/13 04:20:43;;;;;;;3.63;3.33;;;;;;;;;;5079155;28;20200;-68
2022/12/13 04:23:11;;;;;;;3.53;3.22;;;;;;;;;;5078843;28;20273;-68
2022/12/13 04:25:39;;;;;;;3.10;2.90;;;;;;;;;;5078990;28;20211;-68
2022/12/13 04:28:08;;;;;;;11.82;10.73;;;;;;;;;;5078834;28;20261;-68
2022/12/13 04:30:36;;;;;;;21.05;18.92;;;;;;;;;;5078403;28;20255;-68
2022/12/13 04:33:04;;;;;;;18.52;16.83;;;;;;;;;;5078899;28;20204;-68
2022/12/13 04:35:32;;;;;;;15.98;14.48;;;;;;;;;;5078672;28;20211;-68
2022/12/13 04:37:59;;;;;;;14.60;13.18;;;;;;;;;;5078659;28;20208;-68
2022/12/13 04:40:27;;;;;;;13.88;12.57;;;;;;;;;;5078792;28;20208;-68
2022/12/13 04:42:55;;;;;;;13.43;12.13;;;;;;;;;;5078257;28;20262;-68
2022/12/13 04:45:24;;;;;;;13.43;12.13;;;;;;;;;;5078263;28;20205;-68
2022/12/13 04:47:51;;;;;;;11.93;10.82;;;;;;;;;;5078275;28;20301;-69
2022/12/13 04:50:20;;;;;;;11.55;10.45;;;;;;;;;;5078111;28;20258;-68
2022/12/13 04:52:47;;;;;;;11.75;10.60;;;;;;;;;;5078209;28;20610;-68
2022/12/13 04:55:15;;;;;;;11.25;10.15;;;;;;;;;;5078851;28;20208;-68
2022/12/13 04:57:42;;;;;;;10.70;9.70;;;;;;;;;;5078486;28;20574;-68
2022/12/13 05:00:13;;;;;;;10.40;9.40;;;;;;;;;;5077852;28;20204;-68
2022/12/13 05:02:42;;;;;;;9.68;8.77;;;;;;;;;;5077540;28;20200;-68
2022/12/13 05:05:10;;;;;;;9.02;8.23;;;;;;;;;;5077721;28;20691;-68
2022/12/13 05:07:38;;;;;;;9.35;8.45;;;;;;;;;;5077994;28;20215;-68
2022/12/13 05:10:05;;;;;;;8.70;7.90;;;;;;;;;;5077519;28;20282;-68
2022/12/13 05:12:33;;;;;;;8.73;7.93;;;;;;;;;;5077689;28;20232;-68
2022/12/13 05:15:00;;;;;;;8.30;7.50;;;;;;;;;;5077842;28;20589;-68
2022/12/13 05:17:27;;;;;;;8.57;7.78;;;;;;;;;;5077496;28;20243;-68
2022/12/13 05:19:56;;;;;;;8.00;7.30;;;;;;;;;;5077430;28;20204;-68
2022/12/13 05:22:23;;;;;;;7.78;7.07;;;;;;;;;;5077779;28;20207;-68
2022/12/13 05:24:51;;;;;;;8.20;7.40;;;;;;;;;;5077182;28;20215;-69
2022/12/13 05:27:18;;;;;;;7.60;6.90;;;;;;;;;;5076318;28;20590;-68
2022/12/13 05:29:46;;;;;;;7.63;6.93;;;;;;;;;;5076910;28;20211;-68
2022/12/13 05:32:13;;;;;;;7.78;7.10;;;;;;;;;;5076768;28;20642;-68
2022/12/13 05:34:40;;;;;;;7.80;7.10;;;;;;;;;;5077273;28;20235;-68
2022/12/13 05:37:09;;;;;;;7.43;6.72;;;;;;;;;;5075727;28;20265;-68
2022/12/13 05:39:36;;;;;;;7.10;6.50;;;;;;;;;;5077104;28;20483;-68
2022/12/13 05:42:04;;;;;;;15.25;13.85;;;;;;;;;;5076403;28;20200;-68
2022/12/13 05:44:32;;;;;;;13.65;12.45;;;;;;;;;;5075946;28;20205;-68
2022/12/13 05:46:59;;;;;;;12.20;11.10;;;;;;;;;;5076460;28;20231;-68
2022/12/13 05:49:27;;;;;;;11.90;10.90;;;;;;;;;;5075679;28;20208;-68
2022/12/13 05:51:54;;;;;;;11.10;10.20;;;;;;;;;;5075844;28;20251;-68
2022/12/13 05:54:23;;;;;;;11.88;10.77;;;;;;;;;;5075796;28;20215;-68
2022/12/13 05:56:50;;;;;;;10.77;9.77;;;;;;;;;;5075281;28;20231;-68
2022/12/13 05:59:17;;;;;;;10.40;9.40;;;;;;;;;;5075640;28;20220;-68
2022/12/13 06:01:44;;;;;;;11.55;10.55;;;;;;;;;;5075459;28;20212;-68
2022/12/13 06:04:12;;;;;;;10.77;9.88;;;;;;;;;;5074882;28;20573;-68
2022/12/13 06:06:39;;;;;;;10.35;9.52;;;;;;;;;;5074756;28;20276;-68
2022/12/13 06:09:07;;;;;;;10.30;9.40;;;;;;;;;;5074854;28;20827;-68
2022/12/13 06:11:35;;;;;;;10.05;9.15;;;;;;;;;;5074695;28;20334;-68
2022/12/13 06:14:03;;;;;;;9.45;8.65;;;;;;;;;;5074609;28;20196;-69
2022/12/13 06:16:30;;;;;;;9.60;8.70;;;;;;;;;;5074691;28;20213;-68
2022/12/13 06:18:57;;;;;;;9.55;8.23;;;;;;;;;;5074376;28;20215;-68
2022/12/13 06:21:25;;;;;;;8.93;8.13;;;;;;;;;;5074860;28;20211;-68
2022/12/13 06:23:52;;;;;;;8.93;8.23;;;;;;;;;;5074388;28;20204;-68
2022/12/13 06:26:20;;;;;;;8.93;8.15;;;;;;;;;;5074181;28;20205;-68
2022/12/13 06:28:49;;;;;;;8.10;7.30;;;;;;;;;;5074180;28;20455;-68
2022/12/13 06:31:16;;;;;;;8.40;7.65;;;;;;;;;;5074295;28;20228;-68
2022/12/13 06:33:43;;;;;;;7.90;7.25;;;;;;;;;;5074726;28;20204;-68
2022/12/13 06:36:11;;;;;;;8.00;7.30;;;;;;;;;;5074526;28;20204;-68
2022/12/13 06:38:38;;;;;;;7.28;6.68;;;;;;;;;;5075016;28;20212;-68
2022/12/13 06:41:09;;;;;;;7.53;6.82;;;;;;;;;;5074287;28;20215;-68
2022/12/13 06:43:37;;;;;;;7.63;6.93;;;;;;;;;;5074352;28;20691;-69
2022/12/13 06:46:06;;;;;;;7.05;6.45;;;;;;;;;;5074631;28;20208;-69
2022/12/13 06:48:33;;;;;;;7.22;6.60;;;;;;;;;;5073617;28;20204;-68
2022/12/13 06:51:02;;;;;;;7.28;6.68;;;;;;;;;;5077923;28;20205;-68
2022/12/13 06:53:29;;;;;;;7.35;6.75;;;;;;;;;;5078027;28;20262;-69
2022/12/13 06:55:56;;;;;;;7.40;6.70;;;;;;;;;;5078594;28;20212;-68
2022/12/13 06:58:24;;;;;;;7.30;6.70;;;;;;;;;;5077741;28;20616;-68
2022/12/13 07:01:01;;;;;;;6.88;6.18;;;;;;;;;;5078037;28;20589;-68
2022/12/13 07:03:30;;;;;;;6.22;5.72;;;;;;;;;;5077600;28;20312;-68
2022/12/13 07:05:58;;;;;;;6.22;5.68;;;;;;;;;;5077488;28;20196;-68
2022/12/13 07:08:25;;;;;;;6.07;5.47;;;;;;;;;;5078217;28;20204;-68
2022/12/13 07:10:54;;;;;;;6.38;5.88;;;;;;;;;;5076621;28;20204;-68
2022/12/13 07:13:21;;;;;;;6.25;5.63;;;;;;;;;;5076894;28;20228;-68
2022/12/13 07:15:49;;;;;;;6.13;5.63;;;;;;;;;;5077490;28;20211;-69
2022/12/13 07:18:16;;;;;;;5.88;5.38;;;;;;;;;;5077185;28;20243;-68
2022/12/13 07:20:45;;;;;;;5.80;5.30;;;;;;;;;;5077277;28;20204;-68
2022/12/13 07:23:13;;;;;;;5.78;5.28;;;;;;;;;;5077348;28;20200;-68
2022/12/13 07:25:40;;;;;;;5.90;5.30;;;;;;;;;;5077790;28;20238;-68
2022/12/13 07:28:09;;;;;;;6.05;5.55;;;;;;;;;;5077365;28;20221;-68
2022/12/13 07:30:39;;;;;;;5.80;5.30;;;;;;;;;;5077616;28;20212;-68
2022/12/13 07:33:06;;;;;;;5.97;5.43;;;;;;;;;;5077285;28;20637;-68
2022/12/13 07:35:34;;;;;;;5.88;5.38;;;;;;;;;;5078556;28;20208;-68
2022/12/13 07:38:03;;;;;;;5.53;5.03;;;;;;;;;;5077939;28;20302;-68
2022/12/13 07:40:31;;;;;;;5.82;5.32;;;;;;;;;;5078159;28;20196;-69
2022/12/13 07:42:58;;;;;;;5.75;5.25;;;;;;;;;;5077082;28;20204;-68
2022/12/13 07:45:25;;;;;;;5.38;4.93;;;;;;;;;;5077170;28;20201;-68
2022/12/13 07:47:53;;;;;;;5.63;5.00;;;;;;;;;;5077453;28;20421;-68
2022/12/13 07:50:20;;;;;;;5.78;5.28;;;;;;;;;;5077196;28;20207;-68
2022/12/13 07:52:48;;;;;;;5.60;5.10;;;;;;;;;;5078154;28;20228;-68
2022/12/13 07:55:17;;;;;;;6.13;5.53;;;;;;;;;;5077864;28;20250;-69
2022/12/13 07:57:44;;;;;;;5.43;4.93;;;;;;;;;;5077830;28;20239;-68
2022/12/13 08:00:12;;;;;;;5.72;5.13;;;;;;;;;;5076940;28;20211;-68
2022/12/13 08:02:40;;;;;;;5.22;4.75;;;;;;;;;;5077255;28;20208;-68
2022/12/13 08:05:08;;;;;;;5.80;5.22;;;;;;;;;;5077193;28;20218;-68
2022/12/13 08:07:35;;;;;;;5.43;4.93;;;;;;;;;;5075953;28;20510;-68
2022/12/13 08:10:02;;;;;;;5.53;5.03;;;;;;;;;;5076863;28;20562;-68
2022/12/13 08:12:31;;;;;;;5.93;5.38;;;;;;;;;;5077464;28;20232;-68
2022/12/13 08:14:58;;;;;;;5.60;5.10;;;;;;;;;;5077604;28;20210;-68
2022/12/13 08:17:26;;;;;;;5.45;4.95;;;;;;;;;;5076589;28;20224;-68
2022/12/13 08:19:53;;;;;;;7.18;6.47;;;;;;;;;;5076772;28;20204;-68
2022/12/13 08:22:20;;;;;;;6.85;6.25;;;;;;;;;;5076444;28;20197;-68
2022/12/13 08:24:47;;;;;;;6.60;6.00;;;;;;;;;;5075419;28;20205;-68
2022/12/13 08:27:15;;;;;;;6.75;6.07;;;;;;;;;;5074877;28;20604;-68
2022/12/13 08:29:44;;;;;;;6.90;6.28;;;;;;;;;;5066122;28;20205;-68
2022/12/13 08:32:12;;;;;;;6.35;5.72;;;;;;;;;;5061836;28;20224;-68
2022/12/13 08:34:41;;;;;;;6.32;5.72;;;;;;;;;;5074727;28;20270;-68
2022/12/13 08:37:08;;;;;;;6.32;5.72;;;;;;;;;;5063586;28;20545;-68
2022/12/13 08:39:36;;;;;;;6.32;5.70;;;;;;;;;;5056300;28;20204;-68
2022/12/13 08:42:04;;;;;;;6.38;5.60;;;;;;;;;;5056101;28;20517;-68
2022/12/13 08:44:31;;;;;;;6.40;5.80;;;;;;;;;;5058372;28;20211;-68
2022/12/13 08:47:00;;;;;;;6.28;5.68;;;;;;;;;;5073285;28;20197;-68
2022/12/13 08:49:27;;;;;;;6.82;6.20;;;;;;;;;;5071550;28;20196;-68
2022/12/13 08:51:54;;;;;;;6.15;5.57;;;;;;;;;;5073485;28;20534;-68
2022/12/13 08:54:22;;;;;;;6.20;5.60;;;;;;;;;;5074382;28;20193;-69
2022/12/13 08:56:49;;;;;;;20.95;18.73;;;;;;;;;;5074653;28;20208;-68
2022/12/13 08:59:17;;;;;;;17.52;15.70;;;;;;;;;;5074535;28;20200;-68
2022/12/13 09:01:44;;;;;;;15.50;13.90;;;;;;;;;;5075591;28;20204;-68
2022/12/13 09:04:13;;;;;;;14.45;13.07;;;;;;;;;;5075614;28;20624;-69
2022/12/13 09:06:42;;;;;;;14.07;12.57;;;;;;;;;;5075615;28;20205;-68
2022/12/13 09:09:10;;;;;;;14.85;13.18;;;;;;;;;;5075991;28;20301;-68
2022/12/13 09:11:39;;;;;;;13.85;12.50;;;;;;;;;;5075330;28;20270;-68
2022/12/13 09:14:07;;;;;;;12.50;11.20;;;;;;;;;;5075066;28;20272;-68
2022/12/13 09:16:35;;;;;;;12.32;11.18;;;;;;;;;;5074315;28;20240;-69
2022/12/13 09:19:02;;;;;;;14.20;11.43;;;;;;;;;;5075505;28;20574;-68
2022/12/13 09:21:31;;;;;;;12.70;11.38;;;;;;;;;;5076055;28;20204;-69
2022/12/13 09:23:58;;;;;;;12.40;11.15;;;;;;;;;;5075523;28;20562;-69
2022/12/13 09:26:26;;;;;;;12.13;11.02;;;;;;;;;;5075004;28;20211;-68
2022/12/13 09:28:53;;;;;;;11.88;10.75;;;;;;;;;;5075352;28;20790;-69
2022/12/13 09:31:20;;;;;;;11.55;10.45;;;;;;;;;;5074982;28;20200;-68
2022/12/13 09:33:48;;;;;;;11.35;10.23;;;;;;;;;;5075661;28;20516;-69
2022/12/13 09:36:16;;;;;;;10.57;9.57;;;;;;;;;;5075405;28;20200;-67
2022/12/13 09:38:45;;;;;;;10.80;9.70;;;;;;;;;;5075611;28;20204;-68
2022/12/13 09:41:25;;;;;;;11.10;10.02;;;;;;;;;;5074735;28;20291;-69
2022/12/13 09:43:54;;;;;;;10.73;9.73;;;;;;;;;;5075372;28;20208;-68
2022/12/13 09:46:28;;;;;;;10.77;9.77;;;;;;;;;;5074820;28;20679;-68
2022/12/13 09:48:56;;;;;;;10.63;9.70;;;;;;;;;;5074661;28;20215;-68
2022/12/13 09:51:25;;;;;;;10.77;9.70;;;;;;;;;;5074552;28;20204;-68
2022/12/13 09:53:54;;;;;;;10.50;9.52;;;;;;;;;;5073699;28;20224;-69
2022/12/13 09:56:23;;;;;;;10.38;9.40;;;;;;;;;;5074804;28;20258;-70
2022/12/13 09:58:50;;;;;;;10.00;9.00;;;;;;;;;;5073830;28;20235;-68
2022/12/13 10:01:18;;;;;;;9.95;8.95;;;;;;;;;;5073980;28;20204;-68
2022/12/13 10:03:48;;;;;;;10.02;9.10;;;;;;;;;;5074399;28;20208;-68
2022/12/13 10:06:16;;;;;;;10.05;9.13;;;;;;;;;;5074607;28;20307;-68
2022/12/13 10:08:45;;;;;;;9.48;8.50;;;;;;;;;;5074171;28;20299;-68
2022/12/13 10:11:15;;;;;;;9.00;8.20;;;;;;;;;;5074199;28;20205;-68
2022/12/13 10:13:44;;;;;;;9.38;8.50;;;;;;;;;;5073349;28;20224;-68
2022/12/13 10:16:15;;;;;;;9.90;8.90;;;;;;;;;;5073375;28;20273;-67
2022/12/13 10:18:43;;;;;;;9.38;8.52;;;;;;;;;;5072458;28;20200;-69
2022/12/13 10:21:13;;;;;;;9.35;8.35;;;;;;;;;;5071577;28;20443;-68
2022/12/13 10:23:41;;;;;;;8.85;7.95;;;;;;;;;;5075673;28;20200;-68
2022/12/13 10:26:10;;;;;;;8.60;7.68;;;;;;;;;;5078307;28;20208;-69
2022/12/13 10:28:40;;;;;;;9.13;8.32;;;;;;;;;;5079126;28;20265;-69
2022/12/13 10:31:08;;;;;;;8.20;7.50;;;;;;;;;;5078794;28;20227;-67
2022/12/13 10:33:36;;;;;;;8.70;7.90;;;;;;;;;;5078645;28;20224;-67
2022/12/13 10:36:15;;;;;;;8.10;7.30;;;;;;;;;;5078562;28;20211;-66
2022/12/13 10:38:44;;;;;;;8.45;7.65;;;;;;;;;;5077576;28;20208;-69
2022/12/13 10:41:31;;;;;;;8.27;7.47;;;;;;;;;;5078009;28;20207;-68
2022/12/13 10:44:10;;;;;;;8.65;7.45;;;;;;;;;;5077667;28;20519;-68
2022/12/13 10:46:38;;;;;;;7.35;6.75;;;;;;;;;;5078405;28;20211;-66
2022/12/13 10:49:07;;;;;;;8.88;8.05;;;;;;;;;;5078741;28;20215;-67
2022/12/13 10:51:39;;;;;;;7.57;6.88;;;;;;;;;;5077717;28;20212;-67
2022/12/13 10:54:06;;;;;;;7.65;6.95;;;;;;;;;;5076306;28;20215;-67
2022/12/13 10:56:35;;;;;;;7.07;6.38;;;;;;;;;;5077116;28;20196;-69
2022/12/13 10:59:11;;;;;;;7.35;6.75;;;;;;;;;;5076165;28;20212;-69
2022/12/13 11:01:38;;;;;;;8.57;7.78;;;;;;;;;;5076529;28;20208;-69
2022/12/13 11:04:07;;;;;;;8.60;7.80;;;;;;;;;;5076307;28;20216;-67
2022/12/13 11:06:42;;;;;;;9.20;7.65;;;;;;;;;;5077204;28;20207;-67
2022/12/13 11:09:16;;;;;;;8.50;7.65;;;;;;;;;;5076751;28;20267;-66
2022/12/13 11:11:44;;;;;;;8.00;7.30;;;;;;;;;;5075789;28;20200;-66
2022/12/13 11:14:18;;;;;;;7.63;6.93;;;;;;;;;;5075229;28;20231;-69
2022/12/13 11:16:46;;;;;;;8.52;7.72;;;;;;;;;;5075505;28;20709;-68
2022/12/13 11:19:17;;;;;;;7.82;7.13;;;;;;;;;;5076313;28;20239;-69
2022/12/13 11:21:47;;;;;;;7.80;7.10;;;;;;;;;;5077029;28;20204;-70
2022/12/13 11:24:19;;;;;;;7.50;6.80;;;;;;;;;;5076719;28;20205;-68
2022/12/13 11:26:51;;;;;;;7.78;7.07;;;;;;;;;;5076212;28;20463;-69
2022/12/13 11:29:39;;;;;;;8.23;7.43;;;;;;;;;;5076230;28;20208;-70
2022/12/13 11:32:09;;;;;;;7.10;6.40;;;;;;;;;;5075495;28;20219;-69
2022/12/13 11:34:42;;;;;;;7.63;6.93;;;;;;;;;;5075449;28;20251;-66
2022/12/13 11:37:16;;;;;;;7.60;6.90;;;;;;;;;;5074201;28;20211;-67
2022/12/13 11:39:46;;;;;;;7.45;6.75;;;;;;;;;;5075682;28;20213;-69
2022/12/13 11:42:20;;;;;;;6.82;6.10;;;;;;;;;;5074902;28;20212;-69
2022/12/13 11:44:55;;;;;;;7.20;6.57;;;;;;;;;;5074791;28;20193;-68
2022/12/13 11:47:24;;;;;;;7.30;6.70;;;;;;;;;;5075941;28;20195;-67
2022/12/13 11:49:52;;;;;;;7.60;6.88;;;;;;;;;;5076019;28;20215;-68
2022/12/13 11:52:22;;;;;;;7.10;6.50;;;;;;;;;;5075572;28;20605;-67
2022/12/13 11:54:54;;;;;;;6.93;6.22;;;;;;;;;;5076225;28;20227;-67
2022/12/13 11:57:28;;;;;;;7.25;6.55;;;;;;;;;;5075693;28;20212;-67
2022/12/13 12:00:01;;;;;;;6.95;6.25;;;;;;;;;;5075812;28;20196;-67
2022/12/13 12:02:30;;;;;;;6.70;6.10;;;;;;;;;;5075365;28;20231;-68
2022/12/13 12:04:58;;;;;;;6.93;6.30;;;;;;;;;;5075389;28;20460;-68
2022/12/13 12:07:28;;;;;;;6.57;6.00;;;;;;;;;;5076238;28;20590;-67
2022/12/13 12:09:58;;;;;;;6.82;6.22;;;;;;;;;;5074573;28;20230;-69
2022/12/13 12:12:30;;;;;;;6.47;5.90;;;;;;;;;;5075076;28;20651;-67
2022/12/13 12:15:01;;;;;;;6.57;5.97;;;;;;;;;;5075159;28;20235;-67
2022/12/13 12:17:29;;;;;;;6.53;5.93;;;;;;;;;;5074981;28;20228;-67
2022/12/13 12:19:58;;;;;;;6.28;5.68;;;;;;;;;;5074497;28;20223;-69
2022/12/13 12:22:30;;;;;;;6.60;6.00;;;;;;;;;;5075738;28;20306;-70
2022/12/13 12:25:04;;;;;;;7.00;6.30;;;;;;;;;;5074967;28;20596;-67
2022/12/13 12:27:35;;;;;;;6.45;5.88;;;;;;;;;;5075011;28;20636;-68
2022/12/13 12:30:09;;;;;;;6.72;6.07;;;;;;;;;;5075646;28;20216;-68
2022/12/13 12:32:41;;;;;;;5.75;5.25;;;;;;;;;;5075657;28;20495;-69
2022/12/13 12:35:18;;;;;;;6.72;6.13;;;;;;;;;;5074450;28;20637;-66
2022/12/13 12:37:49;;;;;;;5.90;5.30;;;;;;;;;;5074596;28;20200;-66
2022/12/13 12:40:33;;;;;;;6.43;5.82;;;;;;;;;;5074977;28;20212;-69
2022/12/13 12:43:03;;;;;;;6.40;5.80;;;;;;;;;;5073460;28;20212;-69
2022/12/13 12:45:39;;;;;;;6.35;5.75;;;;;;;;;;5074644;28;20213;-69
2022/12/13 12:48:24;;;;;;;6.32;5.72;;;;;;;;;;5073165;28;20235;-67
2022/12/13 12:50:54;;;;;;;6.38;5.80;;;;;;;;;;5074370;28;20258;-69
2022/12/13 12:53:29;;;;;;;6.10;5.60;;;;;;;;;;5074669;28;20330;-67
2022/12/13 12:56:02;;;;;;;6.60;6.00;;;;;;;;;;5073853;28;20711;-66
2022/12/13 12:58:34;;;;;;;6.55;5.95;;;;;;;;;;5074750;28;20197;-68
2022/12/13 13:01:16;;;;;;;6.22;5.72;;;;;;;;;;5074320;28;20594;-69
2022/12/13 13:03:44;;;;;;;6.15;5.65;;;;;;;;;;5075299;28;20195;-68
2022/12/13 13:06:14;;;;;;;5.97;5.47;;;;;;;;;;5074744;28;20245;-69
2022/12/13 13:08:44;;;;;;;6.30;5.70;;;;;;;;;;5074671;28;20197;-68
2022/12/13 13:11:12;;;;;;;6.03;5.53;;;;;;;;;;5074465;28;20221;-68
2022/12/13 13:13:45;;;;;;;6.25;5.75;;;;;;;;;;5074031;28;20220;-68
2022/12/13 13:16:27;;;;;;;6.43;5.93;;;;;;;;;;5074344;28;20204;-68
2022/12/13 13:18:57;;;;;;;6.47;5.90;;;;;;;;;;5073906;28;20687;-69
2022/12/13 13:21:43;;;;;;;6.47;5.88;;;;;;;;;;5074480;28;20204;-69
2022/12/13 13:24:18;;;;;;;5.90;5.40;;;;;;;;;;5074373;28;20283;-67
2022/12/13 13:26:46;;;;;;;5.95;5.45;;;;;;;;;;5074159;28;20203;-68
2022/12/13 13:29:30;;;;;;;6.50;5.90;;;;;;;;;;5074455;28;20210;-67
2022/12/13 13:31:58;;;;;;;5.90;5.40;;;;;;;;;;5073724;28;20261;-67
2022/12/13 13:34:28;;;;;;;6.13;5.63;;;;;;;;;;5073484;28;20259;-67
2022/12/13 13:36:56;;;;;;;6.03;5.53;;;;;;;;;;5072909;28;20231;-67
2022/12/13 13:39:42;;;;;;;6.00;5.40;;;;;;;;;;5073483;28;20212;-69
2022/12/13 13:42:17;;;;;;;6.10;5.50;;;;;;;;;;5073296;28;20212;-69
2022/12/13 13:44:59;;;;;;;6.03;5.45;;;;;;;;;;5072558;28;20237;-70
2022/12/13 13:47:44;;;;;;;6.35;5.82;;;;;;;;;;5073010;28;20211;-66
2022/12/13 13:50:29;;;;;;;5.88;5.38;;;;;;;;;;5073827;28;20266;-69
2022/12/13 13:53:07;;;;;;;5.90;5.40;;;;;;;;;;5074520;28;20228;-69
2022/12/13 13:55:47;;;;;;;5.97;5.47;;;;;;;;;;5073532;28;20311;-67
2022/12/13 13:58:31;;;;;;;5.32;4.82;;;;;;;;;;5072873;28;20303;-69
2022/12/13 14:01:11;;;;;;;6.28;5.47;;;;;;;;;;5072891;28;20204;-68
2022/12/13 14:03:57;;;;;;;5.70;5.10;;;;;;;;;;5073459;28;20577;-69
2022/12/13 14:06:43;;;;;;;5.30;4.88;;;;;;;;;;5073464;28;20204;-66
2022/12/13 14:09:30;;;;;;;5.90;5.30;;;;;;;;;;5074080;28;20211;-68
2022/12/13 14:12:16;;;;;;;5.53;5.03;;;;;;;;;;5073444;28;20226;-66
2022/12/13 14:14:58;;;;;;;5.55;5.05;;;;;;;;;;5072428;28;20223;-67
2022/12/13 14:17:45;;;;;;;5.90;5.40;;;;;;;;;;5050112;28;20231;-69
2022/12/13 14:20:47;;;;;;;5.32;4.85;;;;;;;;;;5074337;28;20578;-69
2022/12/13 14:23:21;;;;;;;5.32;4.93;;;;;;;;;;5030834;28;20221;-66
2022/12/13 14:25:55;;;;;;;5.50;5.00;;;;;;;;;;5030981;28;20213;-69
2022/12/13 14:28:27;;;;;;;5.40;5.00;;;;;;;;;;5053235;28;20212;-66
2022/12/13 14:30:54;;;;;;;5.20;4.80;;;;;;;;;;5072571;28;20207;-69
2022/12/13 14:33:23;;;;;;;5.60;5.07;;;;;;;;;;5073234;28;20620;-69
2022/12/13 14:35:52;;;;;;;5.72;5.22;;;;;;;;;;5072984;28;20236;-69
2022/12/13 14:38:22;;;;;;;5.38;4.95;;;;;;;;;;5072898;28;20205;-69
2022/12/13 14:40:50;;;;;;;5.25;4.85;;;;;;;;;;5072156;28;20212;-69
2022/12/13 14:43:25;;;;;;;5.80;5.30;;;;;;;;;;5073629;28;20212;-68
2022/12/13 14:45:56;;;;;;;5.40;4.90;;;;;;;;;;5073235;28;20211;-68
2022/12/13 14:48:24;;;;;;;5.50;5.05;;;;;;;;;;5073174;28;20204;-69
2022/12/13 14:50:52;;;;;;;5.15;4.65;;;;;;;;;;5073352;28;20209;-68
2022/12/13 14:53:24;;;;;;;5.60;5.10;;;;;;;;;;5073636;28;20204;-68
2022/12/13 14:56:09;;;;;;;5.10;4.60;;;;;;;;;;5072209;28;20252;-68
2022/12/13 14:58:38;;;;;;;5.45;4.95;;;;;;;;;;5072752;28;20204;-68
2022/12/13 15:01:06;;;;;;;5.32;4.82;;;;;;;;;;5072768;28;20200;-68
2022/12/13 15:03:35;;;;;;;5.35;4.95;;;;;;;;;;5073076;28;20204;-68